sensor_id;sensor_type;location;lat;lon;timestamp;pressure;altitude;pressure_sealevel;temperature;humidity
34931;BME280;21134;49.646;8.560;2023-03-23T00:00:48;99708.47;;;13.88;65.76
34931;BME280;21134;49.646;8.560;2023-03-23T00:03:14;99705.72;;;13.94;66.59
34931;BME280;21134;49.646;8.560;2023-03-23T00:05:41;99716.00;;;13.94;66.12
34931;BME280;21134;49.646;8.560;2023-03-23T00:08:15;99723.66;;;13.98;65.83
34931;BME280;21134;49.646;8.560;2023-03-23T00:10:43;99715.13;;;13.95;66.92
34931;BME280;21134;49.646;8.560;2023-03-23T00:13:09;99716.25;;;13.85;66.84
34931;BME280;21134;49.646;8.560;2023-03-23T00:15:36;99716.88;;;13.93;67.17
34931;BME280;21134;49.646;8.560;2023-03-23T00:18:06;99713.56;;;13.90;66.96
34931;BME280;21134;49.646;8.560;2023-03-23T00:20:32;99710.91;;;13.93;66.72
34931;BME280;21134;49.646;8.560;2023-03-23T00:23:05;99710.78;;;13.98;66.62
34931;BME280;21134;49.646;8.560;2023-03-23T00:25:32;99707.34;;;13.97;66.57
34931;BME280;21134;49.646;8.560;2023-03-23T00:28:00;99705.16;;;13.83;67.12
34931;BME280;21134;49.646;8.560;2023-03-23T00:30:28;99698.25;;;13.85;67.29
34931;BME280;21134;49.646;8.560;2023-03-23T00:32:55;99695.72;;;13.84;67.44
34931;BME280;21134;49.646;8.560;2023-03-23T00:35:21;99696.63;;;13.81;67.61
34931;BME280;21134;49.646;8.560;2023-03-23T00:37:48;99688.13;;;13.79;67.52
34931;BME280;21134;49.646;8.560;2023-03-23T00:40:14;99692.59;;;13.72;67.92
34931;BME280;21134;49.646;8.560;2023-03-23T00:42:42;99692.38;;;13.82;67.56
34931;BME280;21134;49.646;8.560;2023-03-23T00:45:10;99692.06;;;13.92;67.48
34931;BME280;21134;49.646;8.560;2023-03-23T00:47:37;99694.50;;;13.97;66.80
34931;BME280;21134;49.646;8.560;2023-03-23T00:50:04;99700.06;;;13.82;67.83
34931;BME280;21134;49.646;8.560;2023-03-23T00:52:31;99704.31;;;13.83;67.56
34931;BME280;21134;49.646;8.560;2023-03-23T00:54:58;99702.06;;;13.72;67.70
34931;BME280;21134;49.646;8.560;2023-03-23T00:57:24;99697.69;;;13.74;68.19
34931;BME280;21134;49.646;8.560;2023-03-23T00:59:51;99700.50;;;13.65;68.21
34931;BME280;21134;49.646;8.560;2023-03-23T01:02:19;99696.19;;;13.65;68.37
34931;BME280;21134;49.646;8.560;2023-03-23T01:04:49;99694.59;;;13.61;67.93
34931;BME280;21134;49.646;8.560;2023-03-23T01:07:17;99683.56;;;13.58;68.28
34931;BME280;21134;49.646;8.560;2023-03-23T01:09:44;99683.34;;;13.65;67.68
34931;BME280;21134;49.646;8.560;2023-03-23T01:12:11;99684.25;;;13.64;67.31
34931;BME280;21134;49.646;8.560;2023-03-23T01:14:38;99686.19;;;13.56;68.07
34931;BME280;21134;49.646;8.560;2023-03-23T01:17:04;99686.09;;;13.59;68.05
34931;BME280;21134;49.646;8.560;2023-03-23T01:19:32;99678.41;;;13.58;67.44
34931;BME280;21134;49.646;8.560;2023-03-23T01:21:59;99677.66;;;13.54;67.47
34931;BME280;21134;49.646;8.560;2023-03-23T01:24:25;99682.81;;;13.54;67.70
34931;BME280;21134;49.646;8.560;2023-03-23T01:26:52;99678.50;;;13.55;68.23
34931;BME280;21134;49.646;8.560;2023-03-23T01:29:18;99680.38;;;13.48;67.86
34931;BME280;21134;49.646;8.560;2023-03-23T01:31:45;99673.41;;;13.53;68.28
34931;BME280;21134;49.646;8.560;2023-03-23T01:34:11;99671.78;;;13.49;68.11
34931;BME280;21134;49.646;8.560;2023-03-23T01:36:39;99668.00;;;13.62;67.36
34931;BME280;21134;49.646;8.560;2023-03-23T01:39:06;99667.31;;;13.56;67.74
34931;BME280;21134;49.646;8.560;2023-03-23T01:41:34;99662.25;;;13.53;67.67
34931;BME280;21134;49.646;8.560;2023-03-23T01:44:02;99660.34;;;13.61;67.41
34931;BME280;21134;49.646;8.560;2023-03-23T01:46:31;99648.22;;;13.66;66.94
34931;BME280;21134;49.646;8.560;2023-03-23T01:49:02;99656.13;;;13.58;66.74
34931;BME280;21134;49.646;8.560;2023-03-23T01:51:34;99668.19;;;13.56;67.03
34931;BME280;21134;49.646;8.560;2023-03-23T01:54:06;99658.38;;;13.70;66.26
34931;BME280;21134;49.646;8.560;2023-03-23T01:56:38;99663.56;;;13.69;66.31
34931;BME280;21134;49.646;8.560;2023-03-23T01:59:07;99655.56;;;13.78;66.04
34931;BME280;21134;49.646;8.560;2023-03-23T02:01:34;99641.47;;;13.62;66.08
34931;BME280;21134;49.646;8.560;2023-03-23T02:04:03;99640.63;;;13.61;65.97
34931;BME280;21134;49.646;8.560;2023-03-23T02:06:31;99641.59;;;13.57;66.18
34931;BME280;21134;49.646;8.560;2023-03-23T02:08:59;99639.13;;;13.53;66.96
34931;BME280;21134;49.646;8.560;2023-03-23T02:11:27;99632.41;;;13.48;66.96
34931;BME280;21134;49.646;8.560;2023-03-23T02:13:53;99644.28;;;13.53;67.03
34931;BME280;21134;49.646;8.560;2023-03-23T02:16:33;99649.56;;;13.48;67.18
34931;BME280;21134;49.646;8.560;2023-03-23T02:19:12;99640.84;;;13.54;66.53
34931;BME280;21134;49.646;8.560;2023-03-23T02:24:55;99642.75;;;13.45;66.75
34931;BME280;21134;49.646;8.560;2023-03-23T02:27:53;99646.13;;;13.47;66.97
34931;BME280;21134;49.646;8.560;2023-03-23T02:30:42;99645.06;;;13.56;66.71
34931;BME280;21134;49.646;8.560;2023-03-23T02:33:35;99635.78;;;13.51;66.81
34931;BME280;21134;49.646;8.560;2023-03-23T02:36:10;99619.38;;;13.55;66.71
34931;BME280;21134;49.646;8.560;2023-03-23T02:38:43;99622.13;;;13.48;66.64
34931;BME280;21134;49.646;8.560;2023-03-23T02:41:19;99609.09;;;13.55;66.74
34931;BME280;21134;49.646;8.560;2023-03-23T02:43:49;99600.63;;;13.51;66.47
34931;BME280;21134;49.646;8.560;2023-03-23T02:46:16;99601.47;;;13.52;66.53
34931;BME280;21134;49.646;8.560;2023-03-23T02:48:46;99600.88;;;13.43;67.00
34931;BME280;21134;49.646;8.560;2023-03-23T02:51:15;99600.78;;;13.46;66.60
34931;BME280;21134;49.646;8.560;2023-03-23T02:53:43;99606.59;;;13.53;67.13
34931;BME280;21134;49.646;8.560;2023-03-23T02:56:11;99599.81;;;13.49;67.20
34931;BME280;21134;49.646;8.560;2023-03-23T02:58:40;99607.78;;;13.40;67.83
34931;BME280;21134;49.646;8.560;2023-03-23T03:05:34;99601.03;;;13.37;67.85
34931;BME280;21134;49.646;8.560;2023-03-23T03:08:10;99599.47;;;13.30;68.22
34931;BME280;21134;49.646;8.560;2023-03-23T03:10:43;99586.72;;;13.27;68.34
34931;BME280;21134;49.646;8.560;2023-03-23T03:13:22;99587.66;;;13.24;68.37
34931;BME280;21134;49.646;8.560;2023-03-23T03:15:54;99592.78;;;13.23;68.47
34931;BME280;21134;49.646;8.560;2023-03-23T03:18:27;99592.81;;;13.24;69.00
34931;BME280;21134;49.646;8.560;2023-03-23T03:20:59;99593.50;;;13.30;68.65
34931;BME280;21134;49.646;8.560;2023-03-23T03:23:27;99589.31;;;13.24;68.89
34931;BME280;21134;49.646;8.560;2023-03-23T03:25:56;99585.25;;;13.17;69.27
34931;BME280;21134;49.646;8.560;2023-03-23T03:28:24;99584.47;;;13.15;69.32
34931;BME280;21134;49.646;8.560;2023-03-23T03:30:53;99587.97;;;13.11;69.89
34931;BME280;21134;49.646;8.560;2023-03-23T03:33:21;99591.13;;;13.22;69.48
34931;BME280;21134;49.646;8.560;2023-03-23T03:35:51;99587.88;;;13.15;69.05
34931;BME280;21134;49.646;8.560;2023-03-23T03:38:20;99588.69;;;13.16;68.91
34931;BME280;21134;49.646;8.560;2023-03-23T03:40:46;99581.00;;;13.16;69.36
34931;BME280;21134;49.646;8.560;2023-03-23T03:43:13;99593.09;;;13.12;69.62
34931;BME280;21134;49.646;8.560;2023-03-23T03:45:39;99592.16;;;13.15;69.08
34931;BME280;21134;49.646;8.560;2023-03-23T03:48:07;99591.34;;;13.13;69.44
34931;BME280;21134;49.646;8.560;2023-03-23T03:50:34;99589.69;;;13.12;69.75
34931;BME280;21134;49.646;8.560;2023-03-23T03:53:01;99589.75;;;13.09;70.10
34931;BME280;21134;49.646;8.560;2023-03-23T03:55:29;99593.16;;;13.09;70.55
34931;BME280;21134;49.646;8.560;2023-03-23T03:58:00;99584.25;;;13.22;70.24
34931;BME280;21134;49.646;8.560;2023-03-23T04:00:28;99581.09;;;13.11;71.11
34931;BME280;21134;49.646;8.560;2023-03-23T04:02:54;99583.00;;;13.04;71.17
34931;BME280;21134;49.646;8.560;2023-03-23T04:05:21;99580.47;;;13.03;70.69
34931;BME280;21134;49.646;8.560;2023-03-23T04:07:49;99589.75;;;13.09;70.70
34931;BME280;21134;49.646;8.560;2023-03-23T04:10:17;99588.72;;;13.14;70.26
34931;BME280;21134;49.646;8.560;2023-03-23T04:12:48;99585.13;;;13.21;69.33
34931;BME280;21134;49.646;8.560;2023-03-23T04:15:15;99587.03;;;13.15;69.19
34931;BME280;21134;49.646;8.560;2023-03-23T04:17:42;99579.34;;;13.13;70.12
34931;BME280;21134;49.646;8.560;2023-03-23T04:20:10;99583.72;;;13.10;70.56
34931;BME280;21134;49.646;8.560;2023-03-23T04:22:43;99582.06;;;13.09;70.66
34931;BME280;21134;49.646;8.560;2023-03-23T04:25:11;99589.59;;;13.15;71.59
34931;BME280;21134;49.646;8.560;2023-03-23T04:27:40;99593.91;;;13.13;72.63
34931;BME280;21134;49.646;8.560;2023-03-23T04:30:13;99600.09;;;13.06;73.72
34931;BME280;21134;49.646;8.560;2023-03-23T04:32:40;99606.22;;;13.00;74.87
34931;BME280;21134;49.646;8.560;2023-03-23T04:35:08;99612.34;;;12.96;76.51
34931;BME280;21134;49.646;8.560;2023-03-23T04:37:36;99622.25;;;13.10;74.50
34931;BME280;21134;49.646;8.560;2023-03-23T04:40:05;99612.81;;;13.10;75.10
34931;BME280;21134;49.646;8.560;2023-03-23T04:42:36;99616.00;;;13.20;72.42
34931;BME280;21134;49.646;8.560;2023-03-23T04:45:04;99616.44;;;13.37;70.34
34931;BME280;21134;49.646;8.560;2023-03-23T04:47:35;99622.44;;;13.36;70.29
34931;BME280;21134;49.646;8.560;2023-03-23T04:50:06;99621.66;;;13.34;70.81
34931;BME280;21134;49.646;8.560;2023-03-23T04:52:33;99627.19;;;13.52;70.09
34931;BME280;21134;49.646;8.560;2023-03-23T04:55:03;99633.88;;;13.57;69.57
34931;BME280;21134;49.646;8.560;2023-03-23T04:57:30;99633.97;;;13.54;70.69
34931;BME280;21134;49.646;8.560;2023-03-23T04:59:57;99643.78;;;13.71;68.91
34931;BME280;21134;49.646;8.560;2023-03-23T05:02:23;99631.91;;;13.67;69.38
34931;BME280;21134;49.646;8.560;2023-03-23T05:04:51;99628.34;;;13.71;69.04
34931;BME280;21134;49.646;8.560;2023-03-23T05:07:18;99632.75;;;13.67;69.91
34931;BME280;21134;49.646;8.560;2023-03-23T05:09:47;99636.03;;;13.72;68.88
34931;BME280;21134;49.646;8.560;2023-03-23T05:12:13;99645.09;;;13.86;68.04
34931;BME280;21134;49.646;8.560;2023-03-23T05:14:42;99644.34;;;13.82;67.72
34931;BME280;21134;49.646;8.560;2023-03-23T05:17:08;99640.88;;;13.83;68.69
34931;BME280;21134;49.646;8.560;2023-03-23T05:19:35;99664.00;;;14.14;66.45
34931;BME280;21134;49.646;8.560;2023-03-23T05:22:04;99670.22;;;14.07;67.03
34931;BME280;21134;49.646;8.560;2023-03-23T05:24:31;99672.59;;;14.13;66.33
34931;BME280;21134;49.646;8.560;2023-03-23T05:26:58;99675.75;;;14.23;66.74
34931;BME280;21134;49.646;8.560;2023-03-23T05:29:24;99678.84;;;14.34;66.55
34931;BME280;21134;49.646;8.560;2023-03-23T05:31:51;99676.63;;;14.22;68.05
34931;BME280;21134;49.646;8.560;2023-03-23T05:34:18;99679.19;;;14.24;68.55
34931;BME280;21134;49.646;8.560;2023-03-23T05:36:44;99674.16;;;14.19;69.35
34931;BME280;21134;49.646;8.560;2023-03-23T05:39:13;99675.22;;;14.12;69.83
34931;BME280;21134;49.646;8.560;2023-03-23T05:41:41;99668.34;;;14.12;69.96
34931;BME280;21134;49.646;8.560;2023-03-23T05:44:08;99677.06;;;14.07;70.35
34931;BME280;21134;49.646;8.560;2023-03-23T05:46:34;99683.84;;;14.11;70.16
34931;BME280;21134;49.646;8.560;2023-03-23T05:49:01;99681.44;;;14.05;71.16
34931;BME280;21134;49.646;8.560;2023-03-23T05:51:27;99684.88;;;14.04;71.31
34931;BME280;21134;49.646;8.560;2023-03-23T05:53:53;99677.94;;;14.07;71.50
34931;BME280;21134;49.646;8.560;2023-03-23T05:56:21;99676.28;;;14.05;72.04
34931;BME280;21134;49.646;8.560;2023-03-23T05:58:48;99681.47;;;14.03;72.13
34931;BME280;21134;49.646;8.560;2023-03-23T06:01:14;99683.50;;;13.92;72.37
34931;BME280;21134;49.646;8.560;2023-03-23T06:03:41;99687.41;;;14.05;71.53
34931;BME280;21134;49.646;8.560;2023-03-23T06:06:09;99687.31;;;14.08;71.66
34931;BME280;21134;49.646;8.560;2023-03-23T06:08:36;99688.56;;;13.95;72.59
34931;BME280;21134;49.646;8.560;2023-03-23T06:11:03;99690.97;;;14.01;72.99
34931;BME280;21134;49.646;8.560;2023-03-23T06:13:32;99687.53;;;14.01;72.58
34931;BME280;21134;49.646;8.560;2023-03-23T06:15:59;99702.97;;;14.01;72.51
34931;BME280;21134;49.646;8.560;2023-03-23T06:18:25;99710.22;;;13.86;73.52
34931;BME280;21134;49.646;8.560;2023-03-23T06:20:54;99701.16;;;14.04;72.13
34931;BME280;21134;49.646;8.560;2023-03-23T06:23:20;99706.41;;;14.01;72.13
34931;BME280;21134;49.646;8.560;2023-03-23T06:25:47;99701.78;;;14.12;71.84
34931;BME280;21134;49.646;8.560;2023-03-23T06:28:14;99702.13;;;14.00;71.88
34931;BME280;21134;49.646;8.560;2023-03-23T06:30:42;99703.84;;;14.00;71.79
34931;BME280;21134;49.646;8.560;2023-03-23T06:33:08;99706.34;;;14.03;71.71
34931;BME280;21134;49.646;8.560;2023-03-23T06:35:36;99706.41;;;14.01;72.19
34931;BME280;21134;49.646;8.560;2023-03-23T06:38:02;99701.38;;;13.96;72.44
34931;BME280;21134;49.646;8.560;2023-03-23T06:40:29;99710.50;;;14.07;72.15
34931;BME280;21134;49.646;8.560;2023-03-23T06:42:56;99714.13;;;14.01;71.99
34931;BME280;21134;49.646;8.560;2023-03-23T06:45:24;99709.09;;;13.96;72.79
34931;BME280;21134;49.646;8.560;2023-03-23T06:47:52;99710.06;;;13.92;72.72
34931;BME280;21134;49.646;8.560;2023-03-23T06:50:18;99722.91;;;13.92;72.82
34931;BME280;21134;49.646;8.560;2023-03-23T06:52:45;99730.63;;;13.92;73.09
34931;BME280;21134;49.646;8.560;2023-03-23T06:55:12;99724.59;;;13.93;73.23
34931;BME280;21134;49.646;8.560;2023-03-23T06:57:39;99729.03;;;13.88;73.03
34931;BME280;21134;49.646;8.560;2023-03-23T07:00:06;99727.16;;;13.93;73.10
34931;BME280;21134;49.646;8.560;2023-03-23T07:02:39;99739.19;;;13.93;73.23
34931;BME280;21134;49.646;8.560;2023-03-23T07:05:07;99747.22;;;13.81;74.13
34931;BME280;21134;49.646;8.560;2023-03-23T07:07:34;99746.16;;;13.89;73.51
34931;BME280;21134;49.646;8.560;2023-03-23T07:10:02;99738.22;;;13.97;73.31
34931;BME280;21134;49.646;8.560;2023-03-23T07:12:28;99741.75;;;13.93;73.15
34931;BME280;21134;49.646;8.560;2023-03-23T07:14:55;99738.63;;;14.13;72.57
34931;BME280;21134;49.646;8.560;2023-03-23T07:17:21;99763.94;;;13.97;73.29
34931;BME280;21134;49.646;8.560;2023-03-23T07:19:48;99756.34;;;13.92;73.50
34931;BME280;21134;49.646;8.560;2023-03-23T07:22:16;99747.66;;;13.96;72.83
34931;BME280;21134;49.646;8.560;2023-03-23T07:24:42;99753.56;;;14.00;73.65
34931;BME280;21134;49.646;8.560;2023-03-23T07:27:09;99749.44;;;13.94;73.25
34931;BME280;21134;49.646;8.560;2023-03-23T07:29:35;99749.63;;;13.88;73.76
34931;BME280;21134;49.646;8.560;2023-03-23T07:32:04;99753.88;;;13.88;73.73
34931;BME280;21134;49.646;8.560;2023-03-23T07:34:31;99746.88;;;13.94;73.30
34931;BME280;21134;49.646;8.560;2023-03-23T07:36:58;99763.25;;;13.90;73.86
34931;BME280;21134;49.646;8.560;2023-03-23T07:39:26;99762.25;;;13.96;73.49
34931;BME280;21134;49.646;8.560;2023-03-23T07:41:52;99760.66;;;13.92;73.81
34931;BME280;21134;49.646;8.560;2023-03-23T07:44:19;99772.75;;;13.88;73.64
34931;BME280;21134;49.646;8.560;2023-03-23T07:46:45;99772.84;;;13.84;74.41
34931;BME280;21134;49.646;8.560;2023-03-23T07:49:12;99778.16;;;13.78;74.53
34931;BME280;21134;49.646;8.560;2023-03-23T07:51:39;99782.91;;;13.93;74.32
34931;BME280;21134;49.646;8.560;2023-03-23T07:54:06;99776.88;;;13.94;74.02
34931;BME280;21134;49.646;8.560;2023-03-23T07:56:34;99772.03;;;13.83;74.97
34931;BME280;21134;49.646;8.560;2023-03-23T07:59:00;99770.88;;;13.93;74.79
34931;BME280;21134;49.646;8.560;2023-03-23T08:01:27;99775.25;;;13.91;74.84
34931;BME280;21134;49.646;8.560;2023-03-23T08:03:54;99771.50;;;14.03;74.61
34931;BME280;21134;49.646;8.560;2023-03-23T08:06:22;99773.94;;;14.08;74.49
34931;BME280;21134;49.646;8.560;2023-03-23T08:08:50;99778.28;;;14.06;74.48
34931;BME280;21134;49.646;8.560;2023-03-23T08:11:17;99787.06;;;13.97;75.00
34931;BME280;21134;49.646;8.560;2023-03-23T08:13:45;99788.78;;;13.98;74.70
34931;BME280;21134;49.646;8.560;2023-03-23T08:16:12;99801.72;;;13.95;75.84
34931;BME280;21134;49.646;8.560;2023-03-23T08:18:38;99790.53;;;13.96;75.53
34931;BME280;21134;49.646;8.560;2023-03-23T08:21:06;99801.03;;;13.88;75.97
34931;BME280;21134;49.646;8.560;2023-03-23T08:23:34;99799.25;;;13.90;76.54
34931;BME280;21134;49.646;8.560;2023-03-23T08:26:02;99809.44;;;13.95;75.96
34931;BME280;21134;49.646;8.560;2023-03-23T08:28:28;99801.91;;;13.87;76.40
34931;BME280;21134;49.646;8.560;2023-03-23T08:30:56;99821.56;;;13.90;76.21
34931;BME280;21134;49.646;8.560;2023-03-23T08:33:23;99806.41;;;13.79;76.61
34931;BME280;21134;49.646;8.560;2023-03-23T08:35:55;99817.63;;;13.75;77.02
34931;BME280;21134;49.646;8.560;2023-03-23T08:38:21;99824.50;;;13.76;77.31
34931;BME280;21134;49.646;8.560;2023-03-23T08:40:48;99821.09;;;13.74;77.28
34931;BME280;21134;49.646;8.560;2023-03-23T08:43:15;99821.09;;;13.76;77.38
34931;BME280;21134;49.646;8.560;2023-03-23T08:45:42;99824.38;;;13.81;77.56
34931;BME280;21134;49.646;8.560;2023-03-23T08:48:10;99824.38;;;13.81;77.66
34931;BME280;21134;49.646;8.560;2023-03-23T08:50:37;99834.78;;;13.75;78.14
34931;BME280;21134;49.646;8.560;2023-03-23T08:53:03;99836.22;;;13.86;77.64
34931;BME280;21134;49.646;8.560;2023-03-23T08:55:31;99829.72;;;13.73;77.77
34931;BME280;21134;49.646;8.560;2023-03-23T08:57:57;99832.28;;;13.73;78.19
34931;BME280;21134;49.646;8.560;2023-03-23T09:00:24;99837.28;;;13.79;77.64
34931;BME280;21134;49.646;8.560;2023-03-23T09:02:53;99837.41;;;13.73;78.29
34931;BME280;21134;49.646;8.560;2023-03-23T09:05:26;99848.28;;;13.84;78.01
34931;BME280;21134;49.646;8.560;2023-03-23T09:07:54;99847.84;;;13.67;78.68
34931;BME280;21134;49.646;8.560;2023-03-23T09:10:23;99844.25;;;13.74;77.88
34931;BME280;21134;49.646;8.560;2023-03-23T09:12:51;99841.25;;;13.91;76.38
34931;BME280;21134;49.646;8.560;2023-03-23T09:15:19;99852.13;;;14.01;75.65
34931;BME280;21134;49.646;8.560;2023-03-23T09:17:47;99858.09;;;14.03;75.46
34931;BME280;21134;49.646;8.560;2023-03-23T09:20:15;99864.75;;;14.11;73.83
34931;BME280;21134;49.646;8.560;2023-03-23T09:22:46;99862.94;;;14.15;73.30
34931;BME280;21134;49.646;8.560;2023-03-23T09:25:14;99875.81;;;14.13;72.87
34931;BME280;21134;49.646;8.560;2023-03-23T09:27:42;99870.72;;;14.12;73.58
34931;BME280;21134;49.646;8.560;2023-03-23T09:30:11;99869.59;;;14.22;73.25
34931;BME280;21134;49.646;8.560;2023-03-23T09:32:39;99865.97;;;14.31;71.84
34931;BME280;21134;49.646;8.560;2023-03-23T09:35:08;99874.78;;;14.55;70.82
34931;BME280;21134;49.646;8.560;2023-03-23T09:37:36;99868.03;;;14.51;71.06
34931;BME280;21134;49.646;8.560;2023-03-23T09:40:09;99871.44;;;14.51;70.96
34931;BME280;21134;49.646;8.560;2023-03-23T09:42:44;99883.38;;;14.55;70.31
34931;BME280;21134;49.646;8.560;2023-03-23T09:45:22;99873.56;;;14.68;70.62
34931;BME280;21134;49.646;8.560;2023-03-23T09:48:04;99876.91;;;14.72;70.04
34931;BME280;21134;49.646;8.560;2023-03-23T09:50:33;99880.16;;;14.78;69.33
34931;BME280;21134;49.646;8.560;2023-03-23T09:53:05;99883.78;;;14.71;69.11
34931;BME280;21134;49.646;8.560;2023-03-23T09:55:35;99888.22;;;14.66;69.55
34931;BME280;21134;49.646;8.560;2023-03-23T09:58:10;99874.25;;;14.75;70.45
34931;BME280;21134;49.646;8.560;2023-03-23T10:00:40;99873.00;;;14.88;69.05
34931;BME280;21134;49.646;8.560;2023-03-23T10:03:13;99870.34;;;14.91;68.64
34931;BME280;21134;49.646;8.560;2023-03-23T10:05:42;99870.19;;;14.96;68.48
34931;BME280;21134;49.646;8.560;2023-03-23T10:08:11;99869.41;;;14.94;69.24
34931;BME280;21134;49.646;8.560;2023-03-23T10:10:50;99873.69;;;14.93;69.18
34931;BME280;21134;49.646;8.560;2023-03-23T10:13:28;99868.16;;;14.77;70.13
34931;BME280;21134;49.646;8.560;2023-03-23T10:15:57;99864.63;;;14.81;69.90
34931;BME280;21134;49.646;8.560;2023-03-23T10:18:29;99867.47;;;14.71;71.79
34931;BME280;21134;49.646;8.560;2023-03-23T10:20:58;99856.06;;;14.79;71.50
34931;BME280;21134;49.646;8.560;2023-03-23T10:23:43;99863.88;;;15.06;71.74
34931;BME280;21134;49.646;8.560;2023-03-23T10:26:22;99852.34;;;15.19;71.34
34931;BME280;21134;49.646;8.560;2023-03-23T10:28:57;99853.97;;;15.22;71.85
34931;BME280;21134;49.646;8.560;2023-03-23T10:31:28;99843.09;;;15.40;72.01
34931;BME280;21134;49.646;8.560;2023-03-23T10:34:01;99846.31;;;15.47;71.84
34931;BME280;21134;49.646;8.560;2023-03-23T10:36:31;99852.22;;;15.50;72.12
34931;BME280;21134;49.646;8.560;2023-03-23T10:39:05;99852.66;;;15.63;72.02
34931;BME280;21134;49.646;8.560;2023-03-23T10:41:36;99855.88;;;15.71;71.76
34931;BME280;21134;49.646;8.560;2023-03-23T10:44:09;99865.22;;;15.75;71.70
34931;BME280;21134;49.646;8.560;2023-03-23T10:46:40;99865.56;;;15.63;71.79
34931;BME280;21134;49.646;8.560;2023-03-23T10:49:13;99867.50;;;15.56;71.43
34931;BME280;21134;49.646;8.560;2023-03-23T10:51:44;99871.50;;;15.39;71.89
34931;BME280;21134;49.646;8.560;2023-03-23T10:54:25;99872.44;;;15.36;72.26
34931;BME280;21134;49.646;8.560;2023-03-23T10:56:54;99864.97;;;15.27;71.59
34931;BME280;21134;49.646;8.560;2023-03-23T10:59:26;99870.22;;;15.24;72.05
34931;BME280;21134;49.646;8.560;2023-03-23T11:01:55;99879.94;;;15.16;72.43
34931;BME280;21134;49.646;8.560;2023-03-23T11:04:23;99864.25;;;14.94;73.15
34931;BME280;21134;49.646;8.560;2023-03-23T11:06:52;99866.34;;;14.81;73.69
34931;BME280;21134;49.646;8.560;2023-03-23T11:09:20;99863.63;;;14.85;73.52
34931;BME280;21134;49.646;8.560;2023-03-23T11:11:50;99868.03;;;14.82;73.81
34931;BME280;21134;49.646;8.560;2023-03-23T11:14:20;99876.91;;;14.72;73.57
34931;BME280;21134;49.646;8.560;2023-03-23T11:16:51;99881.16;;;14.73;73.75
34931;BME280;21134;49.646;8.560;2023-03-23T11:19:22;99884.38;;;14.81;75.21
34931;BME280;21134;49.646;8.560;2023-03-23T11:21:51;99890.06;;;14.61;76.14
34931;BME280;21134;49.646;8.560;2023-03-23T11:24:21;99875.75;;;14.51;76.84
34931;BME280;21134;49.646;8.560;2023-03-23T11:26:49;99875.00;;;14.46;77.84
34931;BME280;21134;49.646;8.560;2023-03-23T11:29:21;99869.78;;;14.49;77.58
34931;BME280;21134;49.646;8.560;2023-03-23T11:31:50;99870.72;;;14.45;79.27
34931;BME280;21134;49.646;8.560;2023-03-23T11:34:19;99874.00;;;14.53;79.61
34931;BME280;21134;49.646;8.560;2023-03-23T11:36:49;99864.06;;;14.70;77.71
34931;BME280;21134;49.646;8.560;2023-03-23T11:39:20;99869.28;;;14.67;77.68
34931;BME280;21134;49.646;8.560;2023-03-23T11:41:47;99871.34;;;14.56;78.84
34931;BME280;21134;49.646;8.560;2023-03-23T11:44:14;99866.03;;;14.62;78.06
34931;BME280;21134;49.646;8.560;2023-03-23T11:46:49;99866.72;;;14.67;77.48
34931;BME280;21134;49.646;8.560;2023-03-23T11:49:28;99854.59;;;14.71;78.09
34931;BME280;21134;49.646;8.560;2023-03-23T11:52:02;99856.34;;;14.70;77.86
34931;BME280;21134;49.646;8.560;2023-03-23T11:54:35;99863.38;;;14.63;78.79
34931;BME280;21134;49.646;8.560;2023-03-23T11:57:06;99856.66;;;14.58;78.94
34931;BME280;21134;49.646;8.560;2023-03-23T11:59:35;99861.78;;;14.59;79.84
34931;BME280;21134;49.646;8.560;2023-03-23T12:02:20;99861.06;;;14.54;79.54
34931;BME280;21134;49.646;8.560;2023-03-23T12:04:57;99842.88;;;14.60;79.17
34931;BME280;21134;49.646;8.560;2023-03-23T12:07:39;99857.00;;;14.46;80.11
34931;BME280;21134;49.646;8.560;2023-03-23T12:10:19;99850.97;;;14.45;80.08
34931;BME280;21134;49.646;8.560;2023-03-23T12:12:54;99859.44;;;14.50;79.89
34931;BME280;21134;49.646;8.560;2023-03-23T12:15:26;99853.41;;;14.53;80.26
34931;BME280;21134;49.646;8.560;2023-03-23T12:18:04;99848.78;;;14.64;78.87
34931;BME280;21134;49.646;8.560;2023-03-23T12:20:40;99849.34;;;14.75;78.03
34931;BME280;21134;49.646;8.560;2023-03-23T12:23:22;99848.06;;;14.90;76.18
34931;BME280;21134;49.646;8.560;2023-03-23T12:26:05;99839.16;;;15.00;75.99
34931;BME280;21134;49.646;8.560;2023-03-23T12:28:46;99828.09;;;15.25;73.94
34931;BME280;21134;49.646;8.560;2023-03-23T12:31:19;99833.22;;;15.26;73.30
34931;BME280;21134;49.646;8.560;2023-03-23T12:34:03;99825.47;;;15.26;73.73
34931;BME280;21134;49.646;8.560;2023-03-23T12:36:46;99823.84;;;15.24;72.45
34931;BME280;21134;49.646;8.560;2023-03-23T12:39:41;99819.34;;;15.30;72.25
34931;BME280;21134;49.646;8.560;2023-03-23T12:42:14;99808.84;;;15.37;72.19
34931;BME280;21134;49.646;8.560;2023-03-23T12:44:46;99808.63;;;15.43;71.32
34931;BME280;21134;49.646;8.560;2023-03-23T12:47:31;99808.34;;;15.52;71.24
34931;BME280;21134;49.646;8.560;2023-03-23T12:50:07;99801.44;;;15.52;70.15
34931;BME280;21134;49.646;8.560;2023-03-23T12:52:40;99789.16;;;15.61;69.83
34931;BME280;21134;49.646;8.560;2023-03-23T12:55:16;99801.91;;;15.65;70.12
34931;BME280;21134;49.646;8.560;2023-03-23T12:57:49;99792.16;;;15.75;68.85
34931;BME280;21134;49.646;8.560;2023-03-23T13:00:21;99788.41;;;15.84;68.92
34931;BME280;21134;49.646;8.560;2023-03-23T13:02:53;99786.47;;;15.90;68.95
34931;BME280;21134;49.646;8.560;2023-03-23T13:05:42;99788.84;;;15.96;69.36
34931;BME280;21134;49.646;8.560;2023-03-23T13:08:14;99779.09;;;16.04;68.17
34931;BME280;21134;49.646;8.560;2023-03-23T13:10:45;99778.09;;;16.09;67.63
34931;BME280;21134;49.646;8.560;2023-03-23T13:13:16;99779.88;;;16.07;67.18
34931;BME280;21134;49.646;8.560;2023-03-23T13:15:51;99783.69;;;15.96;67.64
34931;BME280;21134;49.646;8.560;2023-03-23T13:18:31;99784.63;;;15.94;67.74
34931;BME280;21134;49.646;8.560;2023-03-23T13:21:13;99779.97;;;15.78;68.63